Kapuskasing Airport
CYYU : now visible

Airfield :











YOU CAN JOIN US ON...

 
LOGIN :

Register | Disclaimer

   EN    FR    IT 

 









Legend :    VFR   Marginal VFR   IFR   Intensive IFR   Very Intensive IFR
Visi :
Ceiling :
>= 8 km
>= 3000ft
5 to 8 km
1000 to 3000 ft
1500m to 5 km
500 to 1000 ft
800 to 1500m
200 to 500 ft
< 800m
< 200 ft
Symbols :   Thunderstorms  Fog  Heavy snow  Heavy precipitations  Wind > 20 kt






- Airport Elevation : 743 ft
- IATA code : YYU


CYYU - Kapuskasing

CURRENT METAR :
  • 250400Z 24005KT 15SM FEW260 12/00 A3022 RMK CI1 SLP240

EXPIRED METARs :
  • 250300Z 22008KT 15SM FEW085 FEW260 13/01 A3020 RMK AC1CS1 SLP234
  • 250200Z 22009KT 15SM FEW085 FEW260 15/01 A3018 RMK AC1CS1 SLP227

TAF TAF CYYU
Valid from the 25 at 02:00 until the 25 at 14:00 UTC


250141Z 2502/2514 23012KT P6SM FEW090
BECMG 2502/2504 24007KT
BECMG 2512/2514 14008KT RMK NXT FCST BY 250800Z
CZYZ FIR / North America



MET'MAP, your aeronautical weather chart ! - Copyright ORBIFLY December 2007 - Disclaimer

ORBIFLY MET'MAP TEAM :

Programming & Development : Alexandra Zaïnal
Original concept : Baudouin d'Aumeries
Technical & hardware support : Manuel Goepfert
Assistance : Marc-Olivier Méhu

Contact : metmap@orbifly.com




SOURCES & CREDITS :

   NOAA       Earth
Advisory